Alta Hill, California
Current Conditions -  °F | °C
As of 8:40 PM on Saturday 25 Oct 2014 (Local Time) from KGOO Reporting Station
Overcast Overcast  
Wind Chill: 50°   Ceiling: 100
Heat Index: 50°   Visibility: 1.2mi
Dew Point: 50°   Wind: 6mph
Humidity: 100%   Direction: 130°SE
Pressure: 30.12"   Gusts: NA
Location:  39.2183°N, 120.924°W
Report Text: KGOO 260340Z AUTO 13005KT 1 1/4SM OVC001 10/10 A3012 RMK AO1
Loading
Personal Weather Stations






























Interactive Weather Map New forecast layout! Learn more

10-Day Weather Forecast

Advertisements
Track Severe Weather on mobile